Time;durP1;ratioP1;P1;durP2;ratioP2;P2;SDS_P1;SDS_P2;PMS_P1;PMS_P2;Temp;Humidity;BMP_temperature;BMP_pressure;BME280_temperature;BME280_humidity;BME280_pressure;Samples;Min_cycle;Max_cycle;Signal;HPM_P1;HPM_P2
2022/11/27 14:43:35;;;;;;;6.33;2.27;;;;;;;3.36;57.94;95033.13;2613297;54;20216;-84
2022/11/27 14:46:07;;;;;;;1.70;1.60;;;;;;;4.27;57.62;95142.63;2617044;47;20251;-82
2022/11/27 14:48:44;;;;;;;1.20;1.20;;;;;;;4.38;57.38;95157.28;2618401;47;20157;-80
2022/11/27 14:51:18;;;;;;;1.90;1.77;;;;;;;4.10;56.99;95131.72;2618689;47;20164;-83
2022/11/27 14:53:48;;;;;;;1.13;1.13;;;;;;;4.13;56.68;95127.72;2614822;47;20160;-82
2022/11/27 14:56:18;;;;;;;1.30;1.20;;;;;;;4.19;56.39;95144.19;2617283;47;20182;-80
2022/11/27 14:58:53;;;;;;;0.97;0.80;;;;;;;4.40;55.08;95138.53;2617829;47;20172;-82
2022/11/27 15:01:25;;;;;;;1.50;1.47;;;;;;;4.36;55.02;95148.78;2617572;47;20208;-78
2022/11/27 15:03:58;;;;;;;1.40;1.23;;;;;;;4.16;55.81;95123.72;2617651;47;20181;-80
2022/11/27 15:06:28;;;;;;;1.10;1.10;;;;;;;4.40;55.89;95154.63;2618744;47;20180;-84
2022/11/27 15:08:58;;;;;;;2.33;1.50;;;;;;;4.23;55.13;95145.19;2616974;47;20713;-79
2022/11/27 15:11:27;;;;;;;1.27;1.27;;;;;;;4.18;55.38;95148.34;2617389;47;20252;-82
2022/11/27 15:14:02;;;;;;;1.30;1.30;;;;;;;4.34;55.19;95149.38;2617286;54;20158;-81
2022/11/27 15:16:33;;;;;;;0.90;0.90;;;;;;;4.15;55.21;95141.84;2617006;47;20178;-83
2022/11/27 15:19:06;;;;;;;0.93;0.93;;;;;;;4.17;55.04;95141.25;2620268;47;20160;-78
2022/11/27 15:21:39;;;;;;;1.53;1.43;;;;;;;4.08;55.36;95140.03;2618577;54;20252;-79
2022/11/27 15:24:30;;;;;;;1.33;1.30;;;;;;;3.99;56.07;95137.28;2616589;47;20157;-76
2022/11/27 15:27:10;;;;;;;2.50;1.20;;;;;;;3.90;55.49;95119.22;2605334;54;20161;-79
2022/11/27 15:29:43;;;;;;;1.30;1.17;;;;;;;4.09;55.43;95140.75;2619298;47;20160;-77
2022/11/27 15:32:18;;;;;;;0.67;0.67;;;;;;;4.18;55.97;95160.28;2616661;54;20184;-76
2022/11/27 15:34:47;;;;;;;5.60;1.50;;;;;;;4.04;56.18;95145.34;2618103;47;20692;-78
2022/11/27 15:37:24;;;;;;;1.60;1.50;;;;;;;4.09;55.97;95149.91;2616555;54;20631;-78
2022/11/27 15:39:54;;;;;;;1.47;1.47;;;;;;;4.17;56.62;95150.41;2617882;47;20173;-79
2022/11/27 15:42:25;;;;;;;0.83;0.80;;;;;;;4.17;57.10;95144.06;2613690;47;20196;-80
2022/11/27 15:44:58;;;;;;;0.83;0.83;;;;;;;3.92;56.42;95136.16;2616423;47;20165;-84
2022/11/27 15:47:30;;;;;;;2.47;2.37;;;;;;;3.56;56.34;95079.22;2615729;54;20223;-80
2022/11/27 15:50:00;;;;;;;1.37;1.23;;;;;;;4.03;55.94;95140.34;2615556;47;20184;-83
2022/11/27 15:52:29;;;;;;;1.33;1.20;;;;;;;3.81;56.07;95114.44;2615549;54;20185;-82
2022/11/27 15:54:58;;;;;;;0.70;0.70;;;;;;;4.32;56.47;95148.50;2614989;47;20681;-79
2022/11/27 15:57:26;;;;;;;1.93;1.53;;;;;;;4.35;56.13;95147.31;2616695;54;20190;-81
2022/11/27 15:59:58;;;;;;;1.60;1.50;;;;;;;3.81;56.24;95087.16;2618072;47;20207;-83
2022/11/27 16:02:29;;;;;;;2.07;1.93;;;;;;;4.09;56.82;95143.56;2618927;47;20219;-87
2022/11/27 16:04:57;;;;;;;1.40;1.40;;;;;;;4.43;56.96;95151.34;2621094;47;20171;-85
2022/11/27 16:07:26;;;;;;;3.73;2.30;;;;;;;4.82;56.37;95148.13;2616107;47;20171;-86
2022/11/27 16:09:56;;;;;;;2.73;1.97;;;;;;;4.53;57.12;95151.22;2617560;47;20161;-81
2022/11/27 16:12:25;;;;;;;1.20;1.07;;;;;;;4.25;57.44;95100.44;2616918;46;20209;-82
2022/11/27 16:14:54;;;;;;;1.33;1.33;;;;;;;4.63;56.80;95118.22;2616143;46;20192;-82
2022/11/27 16:17:26;;;;;;;8.40;2.20;;;;;;;4.86;57.49;95109.81;2616002;54;20165;-82
2022/11/27 16:19:54;;;;;;;1.40;1.30;;;;;;;4.81;56.59;95087.72;2616364;47;20169;-81
2022/11/27 16:24:52;;;;;;;1.23;1.23;;;;;;;5.44;56.61;95158.88;2627952;54;20197;-84
2022/11/27 16:27:20;;;;;;;1.97;1.77;;;;;;;5.33;57.55;95147.03;2619558;39;20670;-80
2022/11/27 16:29:49;;;;;;;3.13;1.33;;;;;;;5.24;57.79;95156.31;2617819;54;20184;-83
2022/11/27 16:32:18;;;;;;;1.60;1.50;;;;;;;4.64;57.94;95103.59;2618693;54;20184;-85
2022/11/27 16:34:51;;;;;;;1.77;1.30;;;;;;;4.75;58.92;95116.16;2620618;46;20208;-84
2022/11/27 16:37:19;;;;;;;3.27;2.40;;;;;;;4.81;59.17;95143.84;2622558;39;20236;-83
2022/11/27 16:39:48;;;;;;;2.13;2.00;;;;;;;4.92;61.23;95151.56;2623667;47;20169;-84
2022/11/27 16:42:17;;;;;;;1.27;1.27;;;;;;;4.94;59.94;95132.75;2624450;47;20196;-82
2022/11/27 16:44:46;;;;;;;0.87;0.87;;;;;;;5.40;58.57;95128.47;2624673;47;20172;-81
2022/11/27 16:47:15;;;;;;;1.17;1.07;;;;;;;5.68;57.80;95144.19;2621892;54;20224;-81
2022/11/27 16:49:44;;;;;;;3.73;1.23;;;;;;;5.80;57.60;95152.59;2622301;47;20172;-82
2022/11/27 16:52:15;;;;;;;2.50;1.63;;;;;;;5.52;57.60;95145.31;2618780;47;20168;-84
2022/11/27 16:54:44;;;;;;;1.90;1.77;;;;;;;4.85;58.60;95096.38;2618075;54;20188;-83
2022/11/27 16:57:13;;;;;;;1.80;1.77;;;;;;;4.88;60.39;95138.00;2617504;47;20229;-83
2022/11/27 16:59:41;;;;;;;1.87;1.87;;;;;;;5.41;58.49;95143.25;2616797;54;20173;-85
2022/11/27 17:02:12;;;;;;;0.90;0.90;;;;;;;5.14;58.73;95101.63;2621045;31;20700;-84
2022/11/27 17:04:41;;;;;;;3.10;2.43;;;;;;;4.82;59.54;95146.03;2620640;47;20172;-87
2022/11/27 17:07:10;;;;;;;2.83;2.27;;;;;;;5.03;59.64;95144.50;2617543;47;20400;-82
2022/11/27 17:09:42;;;;;;;1.57;1.47;;;;;;;5.80;58.16;95143.41;2616499;54;20510;-86
2022/11/27 17:14:46;;;;;;;1.43;1.43;;;;;;;6.35;55.87;95144.47;2599382;54;20228;-83
2022/11/27 17:17:17;;;;;;;2.70;1.77;;;;;;;6.31;55.84;95150.59;2621456;47;20225;-84
2022/11/27 17:19:53;;;;;;;1.63;1.57;;;;;;;6.29;56.00;95127.97;2616096;46;20164;-85
2022/11/27 17:22:22;;;;;;;3.07;2.80;;;;;;;6.13;55.68;95109.47;2616622;47;20152;-85
2022/11/27 17:24:56;;;;;;;2.50;2.33;;;;;;;5.95;57.71;95093.03;2623288;47;20169;-87
2022/11/27 17:27:27;;;;;;;2.17;2.07;;;;;;;5.65;58.04;95094.09;2622470;47;20161;-85
2022/11/27 17:29:56;;;;;;;5.72;4.03;;;;;;;5.82;58.88;95115.44;2615886;54;20408;-85
2022/11/27 17:32:25;;;;;;;3.47;3.13;;;;;;;5.27;59.30;95048.38;2616773;54;20181;-85
2022/11/27 17:34:54;;;;;;;2.40;1.77;;;;;;;7.04;58.55;95123.63;2617111;54;20192;-82
2022/11/27 17:37:23;;;;;;;1.80;1.70;;;;;;;5.99;59.84;95082.03;2617027;47;20156;-84
2022/11/27 17:39:54;;;;;;;1.50;1.50;;;;;;;5.98;60.46;95139.63;2617278;47;20164;-84
2022/11/27 17:42:23;;;;;;;2.93;2.63;;;;;;;5.63;63.05;95139.66;2617520;46;20174;-84
2022/11/27 17:44:52;;;;;;;1.63;1.63;;;;;;;6.29;61.05;95142.03;2617383;46;20294;-84
2022/11/27 17:47:20;;;;;;;3.30;3.10;;;;;;;5.97;61.92;95143.78;2621401;54;20157;-86
2022/11/27 17:49:49;;;;;;;1.70;1.60;;;;;;;6.40;61.17;95144.09;2615627;47;20228;-81
2022/11/27 17:52:18;;;;;;;1.60;1.60;;;;;;;6.62;60.35;95138.22;2615493;47;20248;-82
2022/11/27 17:54:46;;;;;;;2.63;2.47;;;;;;;6.26;63.78;95134.84;2615283;47;20265;-82
2022/11/27 17:57:18;;;;;;;3.23;3.03;;;;;;;5.72;63.04;95135.25;2615157;47;20165;-81
2022/11/27 17:59:46;;;;;;;5.00;2.33;;;;;;;5.77;63.50;95133.41;2617070;47;20172;-82
2022/11/27 18:02:15;;;;;;;2.30;1.70;;;;;;;6.17;62.11;95138.56;2615005;54;20286;-82
2022/11/27 18:04:43;;;;;;;0.80;0.80;;;;;;;6.41;61.44;95127.94;2614559;47;20289;-81
2022/11/27 18:07:12;;;;;;;3.28;2.40;;;;;;;6.52;61.81;95132.03;2614792;47;20443;-80
2022/11/27 18:09:41;;;;;;;3.07;2.17;;;;;;;6.59;59.46;95038.13;2615288;47;20177;-82
2022/11/27 18:12:10;;;;;;;3.47;2.23;;;;;;;6.08;62.44;95122.56;2614661;47;20192;-82
2022/11/27 18:14:41;;;;;;;2.27;2.17;;;;;;;5.66;63.80;95118.78;2615418;47;20201;-81
2022/11/27 18:17:10;;;;;;;2.77;2.57;;;;;;;6.05;63.30;95118.19;2616062;47;20165;-81
2022/11/27 18:19:38;;;;;;;3.17;2.60;;;;;;;6.44;62.16;95118.25;2616451;54;20156;-82
2022/11/27 18:22:08;;;;;;;3.20;2.90;;;;;;;6.42;63.94;95118.16;2615999;47;20207;-80
2022/11/27 18:24:40;;;;;;;2.97;2.10;;;;;;;6.76;61.75;95120.00;2616289;47;20157;-80
2022/11/27 18:27:09;;;;;;;3.47;1.87;;;;;;;6.42;61.60;95113.22;2616964;47;20173;-83
2022/11/27 18:29:43;;;;;;;2.20;2.13;;;;;;;6.98;61.19;95120.47;2617504;46;20164;-82
2022/11/27 18:32:12;;;;;;;1.53;1.53;;;;;;;7.55;59.79;95109.31;2618142;47;20199;-87
2022/11/27 18:34:42;;;;;;;2.23;2.13;;;;;;;7.14;60.58;95131.84;2618367;54;20180;-87
2022/11/27 18:37:11;;;;;;;2.30;2.03;;;;;;;7.19;61.62;95124.38;2618848;47;20889;-89
2022/11/27 18:39:42;;;;;;;2.10;2.00;;;;;;;6.84;61.67;95104.91;2619126;47;20187;-85
2022/11/27 18:42:12;;;;;;;2.73;2.53;;;;;;;6.62;62.87;95110.81;2619094;47;20175;-85
2022/11/27 18:44:43;;;;;;;3.60;2.30;;;;;;;6.16;63.33;95049.91;2620052;47;20698;-86
2022/11/27 18:47:12;;;;;;;4.13;2.77;;;;;;;5.79;65.86;95125.81;2622351;47;20145;-86
2022/11/27 18:49:42;;;;;;;1.67;1.57;;;;;;;6.24;64.59;95123.50;2622209;47;20169;-87
2022/11/27 18:52:11;;;;;;;2.27;2.13;;;;;;;5.76;66.36;95104.56;2623734;54;20168;-86
2022/11/27 18:54:40;;;;;;;2.47;2.37;;;;;;;6.02;66.89;95127.84;2628116;54;20220;-85
2022/11/27 18:57:09;;;;;;;2.27;2.07;;;;;;;4.83;65.94;95034.53;2621558;47;20195;-84
2022/11/27 18:59:38;;;;;;;1.80;1.53;;;;;;;4.79;66.44;95048.31;2618461;54;20176;-86
2022/11/27 19:02:11;;;;;;;2.40;2.30;;;;;;;5.36;67.82;95117.00;2616027;47;20160;-83
2022/11/27 19:04:41;;;;;;;2.33;2.20;;;;;;;4.55;65.75;95070.75;2617577;54;20172;-84
2022/11/27 19:07:10;;;;;;;2.27;2.17;;;;;;;4.07;67.48;95123.81;2617209;47;20157;-83
2022/11/27 19:09:39;;;;;;;1.30;1.30;;;;;;;4.27;69.43;95117.41;2619252;47;20168;-85
2022/11/27 19:12:08;;;;;;;1.77;1.50;;;;;;;4.27;69.33;95108.25;2622888;47;20161;-86
2022/11/27 19:14:37;;;;;;;1.70;1.70;;;;;;;4.25;69.41;95100.44;2619268;54;20208;-86
2022/11/27 19:17:06;;;;;;;2.03;1.93;;;;;;;3.80;70.72;95124.91;2619829;54;20716;-85
2022/11/27 19:19:37;;;;;;;3.00;1.60;;;;;;;3.68;72.65;95100.97;2623061;47;20165;-85
2022/11/27 19:22:06;;;;;;;3.13;2.93;;;;;;;3.61;73.76;95119.44;2621667;54;20196;-84
2022/11/27 19:24:34;;;;;;;1.80;1.70;;;;;;;3.34;74.82;95110.66;2622230;47;20177;-83
2022/11/27 19:27:03;;;;;;;4.13;2.53;;;;;;;3.37;74.27;95104.59;2622890;46;20247;-85
2022/11/27 19:29:32;;;;;;;1.13;1.10;;;;;;;2.99;73.99;95105.56;2622479;47;20173;-85
2022/11/27 19:32:00;;;;;;;1.13;1.10;;;;;;;3.29;73.50;95122.88;2623174;47;20176;-86
2022/11/27 19:34:29;;;;;;;1.17;1.17;;;;;;;3.09;73.85;95066.31;2625505;47;20160;-86
2022/11/27 19:37:01;;;;;;;1.27;1.27;;;;;;;3.72;72.23;95098.41;2623443;47;20166;-85
2022/11/27 19:39:30;;;;;;;1.87;1.77;;;;;;;3.64;71.35;95095.84;2620979;47;20365;-85
2022/11/27 19:41:59;;;;;;;5.70;1.90;;;;;;;3.98;73.38;95130.22;2609249;47;20212;-86
2022/11/27 19:49:30;;;;;;;1.70;1.60;;;;;;;4.43;68.72;94980.25;2626084;54;20224;-85
2022/11/27 19:54:32;;;;;;;1.67;1.57;;;;;;;5.38;68.04;95093.91;2625434;54;20121;-86
2022/11/27 19:57:01;;;;;;;1.20;1.20;;;;;;;5.75;67.09;95119.22;2623389;54;20254;-87
2022/11/27 20:04:27;;;;;;;1.67;1.27;;;;;;;4.26;68.05;94964.53;2610520;54;20227;-87
2022/11/27 20:06:58;;;;;;;2.50;1.87;;;;;;;4.85;69.30;95087.97;2626806;47;20161;-87
2022/11/27 20:12:35;;;;;;;1.40;1.40;;;;;;;4.86;70.20;95112.63;2593370;54;20240;-87
2022/11/27 20:15:04;;;;;;;2.00;1.90;;;;;;;3.61;70.85;94945.78;2618856;47;20156;-86
2022/11/27 20:17:39;;;;;;;5.50;1.10;;;;;;;5.34;68.87;95077.53;2621189;46;20157;-84
2022/11/27 20:42:22;;;;;;;1.30;1.30;;;;;;;2.20;79.74;95004.34;2608456;54;20208;-86
2022/11/27 20:55:29;;;;;;;1.87;1.70;;;;;;;2.96;79.09;95045.19;2588777;54;20284;-83
2022/11/27 20:58:01;;;;;;;1.53;1.43;;;;;;;2.14;81.71;95015.84;2623716;47;20294;-82
2022/11/27 21:00:30;;;;;;;2.73;2.53;;;;;;;1.98;82.19;95006.34;2623104;47;20133;-83
2022/11/27 21:02:59;;;;;;;0.73;0.73;;;;;;;2.77;83.53;95101.22;2620248;47;20157;-83
2022/11/27 21:05:46;;;;;;;2.07;1.97;;;;;;;2.29;82.44;94995.19;2620192;54;20173;-83
2022/11/27 21:08:15;;;;;;;0.60;0.60;;;;;;;3.67;82.19;95105.13;2620589;47;20165;-81
2022/11/27 21:10:44;;;;;;;2.10;1.90;;;;;;;3.71;78.64;95077.34;2616401;54;20336;-83
2022/11/27 21:13:16;;;;;;;2.90;2.57;;;;;;;3.28;79.77;95094.16;2617365;54;20168;-83
2022/11/27 21:15:48;;;;;;;0.97;0.97;;;;;;;3.22;81.13;95051.78;2616483;47;20208;-82
2022/11/27 21:18:17;;;;;;;1.60;1.50;;;;;;;4.28;78.47;95068.41;2616117;47;20176;-83
2022/11/27 21:20:45;;;;;;;1.53;1.47;;;;;;;4.78;75.28;95089.69;2617579;47;20172;-83
2022/11/27 21:23:14;;;;;;;2.40;2.33;;;;;;;4.10;76.48;95084.06;2616339;54;20722;-84
2022/11/27 21:25:43;;;;;;;1.93;1.57;;;;;;;3.84;78.39;95063.50;2615469;54;20209;-83
2022/11/27 21:28:12;;;;;;;0.80;0.80;;;;;;;4.26;78.00;95073.88;2616402;54;20196;-83
2022/11/27 21:30:43;;;;;;;2.30;2.10;;;;;;;4.85;75.33;95071.13;2618692;54;20184;-85
2022/11/27 21:33:12;;;;;;;2.23;2.13;;;;;;;4.45;75.86;95061.00;2616629;39;20486;-82
2022/11/27 21:35:40;;;;;;;1.77;1.77;;;;;;;4.62;75.60;95067.00;2615993;47;20173;-83
2022/11/27 21:38:09;;;;;;;2.10;2.00;;;;;;;3.60;77.70;95052.81;2613272;47;20738;-80
2022/11/27 21:40:38;;;;;;;4.80;2.40;;;;;;;3.63;79.19;95074.75;2610725;47;20180;-80
2022/11/27 21:43:07;;;;;;;1.60;1.60;;;;;;;3.41;80.33;95034.84;2613709;54;20184;-82
2022/11/27 21:45:38;;;;;;;2.47;2.37;;;;;;;4.02;77.29;95043.59;2616713;54;20187;-84
2022/11/27 21:48:10;;;;;;;1.33;1.27;;;;;;;4.56;76.55;95072.22;2613581;47;20168;-80
2022/11/27 21:50:39;;;;;;;0.87;0.87;;;;;;;5.02;75.27;95039.16;2613049;47;20161;-82
2022/11/27 21:53:08;;;;;;;1.63;1.27;;;;;;;5.21;74.06;95078.19;2616963;54;20216;-90
2022/11/27 21:55:41;;;;;;;1.80;1.80;;;;;;;3.76;76.83;94989.44;2630546;46;20167;-87
2022/11/27 21:58:10;;;;;;;2.97;1.10;;;;;;;4.56;75.18;95016.13;2617465;47;20212;-81
2022/11/27 22:00:38;;;;;;;1.40;1.40;;;;;;;4.94;74.86;95067.47;2615472;47;20212;-83
2022/11/27 22:03:10;;;;;;;2.43;2.33;;;;;;;3.51;77.34;95015.16;2614191;54;20176;-81
2022/11/27 22:05:39;;;;;;;1.83;1.70;;;;;;;3.86;78.92;95069.25;2613880;54;20168;-82
2022/11/27 22:08:07;;;;;;;1.27;1.27;;;;;;;3.43;79.43;95018.16;2614446;54;20785;-83
2022/11/27 22:13:10;;;;;;;4.30;1.97;;;;;;;3.66;76.92;94963.59;2617381;54;20185;-85
2022/11/27 22:15:39;;;;;;;1.00;1.00;;;;;;;3.93;78.50;95064.78;2614911;47;20179;-84
2022/11/27 22:18:11;;;;;;;0.97;0.93;;;;;;;4.47;78.93;95061.13;2613579;47;20180;-83
2022/11/27 22:20:39;;;;;;;2.67;1.73;;;;;;;4.70;74.95;94951.69;2618669;47;20165;-86
2022/11/27 22:23:10;;;;;;;2.93;2.70;;;;;;;5.53;73.50;95060.41;2615361;47;20169;-85
2022/11/27 22:25:39;;;;;;;1.67;1.50;;;;;;;4.14;73.46;94944.16;2608592;47;20231;-84
2022/11/27 22:28:08;;;;;;;1.47;1.47;;;;;;;3.71;77.72;95038.13;2612800;47;20704;-82
2022/11/27 22:30:37;;;;;;;1.23;1.13;;;;;;;2.26;83.06;94996.38;2614509;47;20215;-88
2022/11/27 22:38:01;;;;;;;1.80;1.00;;;;;;;1.32;90.14;94964.00;2608115;54;20220;-84
2022/11/27 22:40:30;;;;;;;2.20;2.10;;;;;;;1.28;90.89;95005.56;2619288;47;20168;-86
2022/11/27 22:42:59;;;;;;;1.10;1.10;;;;;;;1.20;93.28;94991.78;2619341;46;20172;-86
2022/11/27 22:45:28;;;;;;;1.00;1.00;;;;;;;1.41;94.02;95002.31;2625955;46;20168;-86
2022/11/27 22:47:56;;;;;;;1.63;1.53;;;;;;;1.76;93.22;95036.97;2623416;47;20189;-84
2022/11/27 22:50:25;;;;;;;2.33;1.87;;;;;;;1.61;93.86;95033.75;2625240;54;20252;-84
2022/11/27 22:52:54;;;;;;;3.80;2.95;;;;;;;1.59;94.31;95028.75;2616708;54;20422;-83
2022/11/27 22:55:26;;;;;;;4.07;3.43;;;;;;;1.56;94.50;95029.19;2618454;54;20649;-85
2022/11/27 22:57:55;;;;;;;2.47;2.17;;;;;;;1.47;94.85;95029.94;2617511;46;20229;-80
2022/11/27 23:00:24;;;;;;;2.20;2.00;;;;;;;1.47;96.08;95035.53;2616901;47;20212;-82
2022/11/27 23:02:53;;;;;;;1.97;1.80;;;;;;;1.88;97.00;95036.34;2618776;47;20173;-88
2022/11/27 23:05:22;;;;;;;3.23;3.03;;;;;;;1.78;95.36;95033.56;2617760;47;20184;-85
2022/11/27 23:07:51;;;;;;;1.00;1.00;;;;;;;1.50;94.91;95012.03;2618852;46;20188;-86
2022/11/27 23:10:20;;;;;;;14.03;2.23;;;;;;;2.16;94.70;95032.03;2619284;47;20795;-86
2022/11/27 23:13:15;;;;;;;0.80;0.80;;;;;;;1.50;92.15;94903.19;2608964;47;20712;-86
2022/11/27 23:15:44;;;;;;;1.50;1.27;;;;;;;1.51;91.56;94957.66;2621661;47;20172;-86
2022/11/27 23:18:13;;;;;;;2.20;1.27;;;;;;;1.50;92.88;94959.00;2616683;47;20182;-79
2022/11/27 23:20:43;;;;;;;9.83;1.63;;;;;;;2.10;92.99;95007.91;2615548;54;20901;-81
2022/11/27 23:23:13;;;;;;;1.33;1.33;;;;;;;1.98;91.86;94951.19;2618339;47;20330;-86
2022/11/27 23:25:41;;;;;;;1.27;1.23;;;;;;;1.84;92.16;95024.91;2621636;47;20213;-80
2022/11/27 23:28:19;;;;;;;2.00;1.93;;;;;;;2.21;92.92;95030.97;2623125;54;20180;-85
2022/11/27 23:30:48;;;;;;;1.97;1.87;;;;;;;1.68;93.32;95019.63;2627744;39;20841;-89
2022/11/27 23:33:17;;;;;;;0.70;0.70;;;;;;;0.29;95.40;94852.06;2628078;39;20236;-88
2022/11/27 23:35:46;;;;;;;1.77;1.67;;;;;;;0.89;95.64;94910.00;2622833;47;20172;-88
2022/11/27 23:38:14;;;;;;;2.87;2.77;;;;;;;1.60;95.70;94985.56;2623034;46;20636;-86
2022/11/27 23:40:43;;;;;;;2.13;1.97;;;;;;;1.45;95.82;95013.78;2624285;54;20652;-86
2022/11/27 23:43:12;;;;;;;2.30;1.20;;;;;;;0.84;97.13;94944.50;2623343;47;20159;-83
2022/11/27 23:45:43;;;;;;;3.10;2.72;;;;;;;1.65;96.17;94981.72;2620196;47;21000;-84
2022/11/27 23:48:12;;;;;;;1.53;1.47;;;;;;;0.56;94.42;94835.19;2626211;54;20141;-84
2022/11/27 23:50:41;;;;;;;2.10;2.00;;;;;;;1.29;94.91;94974.28;2624347;47;20167;-85
2022/11/27 23:53:10;;;;;;;2.40;2.20;;;;;;;1.23;96.09;95001.75;2625630;47;20165;-86
2022/11/27 23:55:38;;;;;;;1.87;1.77;;;;;;;1.43;97.40;95019.97;2630017;46;20740;-85
